createdAt,value
2018-12-31T00:01:09.616Z,16.10
2018-12-31T00:03:36.677Z,20.05
2018-12-31T00:06:03.724Z,20.43
2018-12-31T00:08:30.754Z,15.58
2018-12-31T00:10:57.807Z,19.75
2018-12-31T00:13:24.833Z,21.15
2018-12-31T00:15:51.898Z,14.13
2018-12-31T00:18:19.036Z,19.30
2018-12-31T00:20:46.094Z,17.10
2018-12-31T00:23:13.212Z,16.15
2018-12-31T00:25:40.281Z,17.95
2018-12-31T00:28:07.369Z,11.18
2018-12-31T00:30:34.412Z,13.25
2018-12-31T00:33:01.445Z,19.77
2018-12-31T00:35:28.530Z,10.72
2018-12-31T00:37:55.571Z,13.93
2018-12-31T00:40:22.609Z,11.05
2018-12-31T00:42:49.674Z,13.48
2018-12-31T00:45:16.749Z,11.22
2018-12-31T00:47:43.817Z,12.88
2018-12-31T00:50:10.870Z,12.00
2018-12-31T00:52:37.899Z,14.25
2018-12-31T00:55:04.959Z,11.43
2018-12-31T00:57:32.004Z,14.78
2018-12-31T00:59:59.043Z,18.92
2018-12-31T01:02:26.101Z,10.75
2018-12-31T01:04:53.168Z,10.48
2018-12-31T01:07:20.221Z,11.78
2018-12-31T01:09:47.266Z,13.15
2018-12-31T01:12:14.340Z,14.10
2018-12-31T01:14:41.384Z,10.98
2018-12-31T01:17:08.436Z,12.10
2018-12-31T01:19:35.472Z,8.65
2018-12-31T01:22:02.541Z,10.18
2018-12-31T01:24:29.587Z,7.45
2018-12-31T01:26:56.616Z,10.38
2018-12-31T01:29:23.668Z,8.55
2018-12-31T01:31:50.704Z,10.75
2018-12-31T01:34:17.792Z,8.88
2018-12-31T01:36:44.800Z,8.08
2018-12-31T01:39:11.857Z,10.63
2018-12-31T01:41:38.890Z,12.30
2018-12-31T01:44:05.951Z,12.53
2018-12-31T01:46:32.984Z,14.18
2018-12-31T01:49:00.028Z,14.03
2018-12-31T01:51:27.085Z,16.75
2018-12-31T01:53:54.121Z,17.00
2018-12-31T01:56:21.157Z,21.27
2018-12-31T01:58:48.203Z,17.70
2018-12-31T02:01:15.253Z,23.22
2018-12-31T02:03:42.282Z,17.75
2018-12-31T02:06:09.329Z,16.75
2018-12-31T02:08:36.370Z,23.67
2018-12-31T02:11:03.421Z,22.82
2018-12-31T02:13:30.462Z,18.45
2018-12-31T02:15:57.498Z,20.25
2018-12-31T02:18:24.570Z,16.23
2018-12-31T02:20:51.635Z,20.60
2018-12-31T02:23:18.928Z,24.20
2018-12-31T02:25:46.064Z,24.35
2018-12-31T02:28:13.109Z,16.97
2018-12-31T02:30:40.156Z,19.73
2018-12-31T02:33:07.214Z,21.50
2018-12-31T02:35:34.245Z,23.27
2018-12-31T02:38:01.294Z,20.40
2018-12-31T02:40:28.342Z,18.40
2018-12-31T02:42:55.388Z,23.05
2018-12-31T02:45:22.439Z,22.50
2018-12-31T02:47:49.466Z,25.85
2018-12-31T02:50:16.512Z,25.12
2018-12-31T02:52:43.542Z,21.65
2018-12-31T02:55:10.594Z,18.00
2018-12-31T02:57:37.634Z,20.72
2018-12-31T03:00:04.693Z,18.00
2018-12-31T03:02:31.727Z,21.45
2018-12-31T03:04:58.765Z,19.05
2018-12-31T03:07:25.802Z,21.42
2018-12-31T03:09:52.824Z,22.85
2018-12-31T03:12:19.853Z,20.15
2018-12-31T03:14:46.891Z,19.45
2018-12-31T03:17:13.926Z,20.75
2018-12-31T03:19:40.960Z,23.05
2018-12-31T03:22:08.005Z,21.62
2018-12-31T03:24:35.044Z,26.07
2018-12-31T03:27:02.078Z,22.07
2018-12-31T03:29:29.110Z,19.92
2018-12-31T03:31:56.159Z,21.85
2018-12-31T03:34:23.198Z,19.05
2018-12-31T03:36:50.260Z,19.92
2018-12-31T03:39:17.300Z,18.00
2018-12-31T03:41:44.357Z,21.35
2018-12-31T03:44:11.414Z,26.35
2018-12-31T03:46:38.448Z,19.85
2018-12-31T03:49:05.499Z,21.45
2018-12-31T03:51:32.547Z,20.82
2018-12-31T03:53:59.603Z,20.65
2018-12-31T03:56:26.627Z,24.12
2018-12-31T03:58:53.698Z,21.00
2018-12-31T04:01:20.745Z,20.72
2018-12-31T04:03:47.768Z,21.75
2018-12-31T04:06:14.800Z,21.37
2018-12-31T04:08:41.854Z,19.45
2018-12-31T04:11:08.882Z,21.07
2018-12-31T04:13:35.931Z,18.27
2018-12-31T04:16:02.982Z,24.80
2018-12-31T04:18:30.002Z,23.62
2018-12-31T04:20:57.043Z,22.37
2018-12-31T04:23:24.083Z,22.25
2018-12-31T04:25:51.123Z,20.92
2018-12-31T04:28:18.139Z,25.35
2018-12-31T04:30:45.175Z,23.02
2018-12-31T04:33:12.199Z,22.17
2018-12-31T04:35:39.229Z,21.10
2018-12-31T04:38:06.272Z,20.70
2018-12-31T04:40:33.312Z,18.35
2018-12-31T04:43:00.369Z,33.38
2018-12-31T04:45:27.429Z,19.42
2018-12-31T04:47:54.461Z,21.05
2018-12-31T04:50:21.491Z,19.82
2018-12-31T04:52:48.539Z,19.55
2018-12-31T04:55:15.583Z,21.15
2018-12-31T04:57:42.629Z,17.98
2018-12-31T05:00:09.656Z,23.05
2018-12-31T05:02:36.681Z,16.87
2018-12-31T05:05:03.909Z,20.15
2018-12-31T05:07:30.959Z,21.97
2018-12-31T05:09:57.995Z,18.35
2018-12-31T05:12:25.030Z,20.92
2018-12-31T05:14:52.069Z,23.00
2018-12-31T05:17:19.136Z,20.50
2018-12-31T05:19:46.210Z,16.45
2018-12-31T05:22:13.261Z,19.00
2018-12-31T05:24:40.313Z,19.67
2018-12-31T05:27:07.371Z,17.65
2018-12-31T05:29:34.393Z,22.37
2018-12-31T05:32:01.424Z,17.73
2018-12-31T05:34:28.471Z,19.57
2018-12-31T05:36:55.501Z,18.00
2018-12-31T05:39:22.544Z,19.30
2018-12-31T05:41:49.600Z,18.37
2018-12-31T05:44:17.629Z,18.70
2018-12-31T05:46:44.682Z,14.15
2018-12-31T05:49:11.839Z,17.20
2018-12-31T05:51:38.871Z,16.40
2018-12-31T05:54:05.901Z,17.30
2018-12-31T05:56:32.927Z,15.48
2018-12-31T05:58:59.952Z,16.57
2018-12-31T06:01:26.999Z,14.75
2018-12-31T06:03:54.049Z,17.23
2018-12-31T06:06:21.083Z,14.95
2018-12-31T06:08:48.118Z,12.03
2018-12-31T06:11:15.165Z,15.50
2018-12-31T06:13:42.211Z,14.63
2018-12-31T06:16:09.248Z,15.03
2018-12-31T06:18:36.293Z,12.55
2018-12-31T06:21:03.343Z,13.80
2018-12-31T06:23:30.373Z,16.25
2018-12-31T06:25:57.420Z,19.42
2018-12-31T06:28:24.476Z,16.90
2018-12-31T06:30:51.496Z,12.15
2018-12-31T06:33:18.555Z,12.88
2018-12-31T06:35:45.597Z,8.53
2018-12-31T06:38:12.612Z,7.72
2018-12-31T06:40:39.679Z,10.50
2018-12-31T06:43:06.726Z,8.13
2018-12-31T06:45:33.778Z,7.37
2018-12-31T06:48:00.803Z,9.80
2018-12-31T06:50:27.834Z,10.70
2018-12-31T06:52:54.864Z,7.00
2018-12-31T06:55:21.916Z,6.95
2018-12-31T06:57:48.963Z,6.70
2018-12-31T07:00:16.011Z,7.78
2018-12-31T07:02:43.055Z,6.05
2018-12-31T07:05:10.091Z,5.45
2018-12-31T07:07:37.161Z,6.83
2018-12-31T07:10:04.806Z,6.00
2018-12-31T07:12:31.843Z,6.87
2018-12-31T07:14:58.873Z,7.95
2018-12-31T07:17:25.903Z,5.30
2018-12-31T07:19:52.944Z,8.28
2018-12-31T07:22:19.971Z,10.80
2018-12-31T07:24:47.029Z,7.15
2018-12-31T07:27:14.062Z,8.50
2018-12-31T07:29:41.105Z,8.35
2018-12-31T07:32:08.147Z,9.15
2018-12-31T07:34:35.216Z,8.45
2018-12-31T07:37:02.273Z,7.10
2018-12-31T07:39:29.303Z,8.63
2018-12-31T07:41:56.349Z,7.10
2018-12-31T07:44:23.377Z,9.38
2018-12-31T07:46:50.432Z,7.08
2018-12-31T07:49:17.493Z,8.35
2018-12-31T07:51:44.534Z,10.88
2018-12-31T07:54:11.571Z,9.40
2018-12-31T07:56:38.595Z,7.50
2018-12-31T07:59:05.622Z,7.40
2018-12-31T08:01:32.686Z,9.45
2018-12-31T08:03:59.733Z,8.38
2018-12-31T08:06:26.776Z,8.20
2018-12-31T08:08:53.814Z,8.15
2018-12-31T08:11:20.862Z,8.58
2018-12-31T08:13:47.892Z,9.03
2018-12-31T08:16:14.930Z,9.90
2018-12-31T08:18:41.974Z,6.17
2018-12-31T08:21:09.024Z,8.85
2018-12-31T08:23:36.089Z,11.33
2018-12-31T08:26:03.131Z,7.28
2018-12-31T08:28:30.194Z,8.25
2018-12-31T08:30:57.254Z,7.53
2018-12-31T08:33:24.314Z,7.20
2018-12-31T08:35:51.376Z,11.30
2018-12-31T08:38:18.433Z,6.33
2018-12-31T08:40:45.468Z,7.53
2018-12-31T08:43:12.506Z,10.30
2018-12-31T08:45:39.579Z,10.60
2018-12-31T08:48:06.641Z,9.05
2018-12-31T08:50:33.674Z,7.80
2018-12-31T08:53:00.725Z,9.90
2018-12-31T08:55:27.772Z,10.38
2018-12-31T08:57:54.824Z,7.80
2018-12-31T09:00:26.216Z,6.85
2018-12-31T09:02:57.158Z,6.80
2018-12-31T09:05:25.034Z,7.05
2018-12-31T09:07:52.086Z,7.50
2018-12-31T09:10:19.134Z,7.58
2018-12-31T09:12:46.168Z,5.90
2018-12-31T09:15:14.710Z,7.00
2018-12-31T09:17:41.877Z,6.22
2018-12-31T09:20:08.954Z,7.95
2018-12-31T09:22:36.054Z,8.63
2018-12-31T09:25:03.130Z,6.80
2018-12-31T09:27:30.151Z,8.15
2018-12-31T09:29:57.201Z,7.78
2018-12-31T09:32:24.240Z,6.22
2018-12-31T09:34:51.281Z,6.72
2018-12-31T09:37:18.320Z,6.08
2018-12-31T09:39:45.355Z,7.50
2018-12-31T09:42:12.401Z,5.05
2018-12-31T09:44:39.501Z,5.45
2018-12-31T09:47:06.586Z,6.75
2018-12-31T09:49:33.650Z,4.28
2018-12-31T09:52:00.696Z,8.33
2018-12-31T09:54:27.739Z,6.25
2018-12-31T09:56:54.803Z,7.35
2018-12-31T09:59:21.853Z,5.67
2018-12-31T10:01:48.990Z,4.70
2018-12-31T10:04:16.069Z,5.10
2018-12-31T10:06:43.122Z,6.25
2018-12-31T10:09:11.988Z,5.62
2018-12-31T10:11:39.075Z,6.20
2018-12-31T10:14:06.116Z,5.83
2018-12-31T10:16:33.220Z,7.50
2018-12-31T10:19:00.279Z,10.00
2018-12-31T10:21:27.339Z,8.88
2018-12-31T10:23:54.391Z,11.65
2018-12-31T10:26:21.451Z,10.58
2018-12-31T10:28:48.539Z,9.65
2018-12-31T10:31:15.596Z,12.30
2018-12-31T10:33:42.656Z,9.43
2018-12-31T10:36:09.684Z,12.00
2018-12-31T10:38:36.773Z,10.58
2018-12-31T10:41:03.947Z,9.83
2018-12-31T10:43:31.045Z,7.45
2018-12-31T10:45:58.104Z,7.62
2018-12-31T10:48:25.146Z,8.65
2018-12-31T10:50:52.265Z,9.38
2018-12-31T10:53:19.326Z,7.35
2018-12-31T10:55:46.404Z,8.40
2018-12-31T10:58:13.466Z,8.93
2018-12-31T11:00:40.502Z,19.07
2018-12-31T11:03:07.556Z,17.57
2018-12-31T11:05:34.617Z,29.80
2018-12-31T11:08:01.705Z,6.08
2018-12-31T11:10:29.163Z,4.85
2018-12-31T11:12:56.214Z,9.05
2018-12-31T11:15:23.266Z,5.33
2018-12-31T11:17:50.319Z,5.97
2018-12-31T11:20:17.372Z,6.80
2018-12-31T11:22:44.413Z,8.43
2018-12-31T11:25:11.491Z,6.03
2018-12-31T11:27:38.537Z,11.33
2018-12-31T11:30:06.425Z,3.37
2018-12-31T11:32:33.463Z,6.12
2018-12-31T11:35:00.546Z,4.50
2018-12-31T11:37:34.404Z,5.80
2018-12-31T11:39:56.547Z,3.83
2018-12-31T11:42:23.633Z,4.58
2018-12-31T11:44:50.716Z,3.70
2018-12-31T11:47:17.805Z,4.78
2018-12-31T11:49:44.867Z,5.28
2018-12-31T11:52:11.941Z,6.50
2018-12-31T11:54:39.373Z,10.25
2018-12-31T11:57:06.453Z,10.13
2018-12-31T11:59:33.482Z,10.03
2018-12-31T12:02:00.544Z,8.53
2018-12-31T12:04:27.595Z,8.73
2018-12-31T12:06:54.636Z,12.05
2018-12-31T12:09:21.767Z,7.08
2018-12-31T12:11:48.846Z,7.80
2018-12-31T12:14:15.934Z,6.35
2018-12-31T12:16:42.985Z,8.43
2018-12-31T12:19:10.098Z,8.75
2018-12-31T12:21:37.223Z,5.12
2018-12-31T12:24:04.329Z,6.17
2018-12-31T12:26:31.426Z,3.87
2018-12-31T12:28:58.557Z,4.42
2018-12-31T12:31:25.956Z,5.47
2018-12-31T12:33:53.080Z,5.70
2018-12-31T12:36:20.208Z,5.20
2018-12-31T12:38:47.320Z,11.68
2018-12-31T12:41:14.451Z,7.35
2018-12-31T12:43:41.545Z,6.40
2018-12-31T12:46:09.026Z,8.75
2018-12-31T12:48:36.120Z,8.13
2018-12-31T12:51:03.243Z,6.75
2018-12-31T12:53:30.333Z,9.65
2018-12-31T12:55:57.455Z,7.05
2018-12-31T12:58:24.556Z,7.35
2018-12-31T13:00:51.914Z,5.45
2018-12-31T13:03:19.021Z,7.53
2018-12-31T13:05:46.100Z,9.10
2018-12-31T13:08:13.199Z,7.15
2018-12-31T13:10:40.308Z,7.45
2018-12-31T13:13:07.448Z,9.78
2018-12-31T13:15:34.522Z,6.97
2018-12-31T13:18:01.696Z,6.00
2018-12-31T13:20:28.824Z,7.30
2018-12-31T13:22:56.174Z,7.05
2018-12-31T13:25:23.362Z,9.10
2018-12-31T13:27:50.495Z,7.42
2018-12-31T13:30:17.591Z,6.95
2018-12-31T13:32:44.703Z,7.62
2018-12-31T13:35:11.806Z,5.00
2018-12-31T13:37:38.896Z,3.75
2018-12-31T13:40:06.009Z,4.60
2018-12-31T13:42:33.438Z,4.80
2018-12-31T13:45:01.316Z,4.72
2018-12-31T13:47:28.424Z,3.20
2018-12-31T13:49:55.751Z,3.27
2018-12-31T13:52:22.881Z,5.65
2018-12-31T13:54:50.331Z,4.72
2018-12-31T13:57:17.520Z,4.35
2018-12-31T13:59:44.627Z,3.08
2018-12-31T14:02:12.151Z,5.05
2018-12-31T14:04:39.259Z,5.97
2018-12-31T14:07:06.450Z,6.92
2018-12-31T14:09:33.586Z,8.58
2018-12-31T14:12:00.690Z,5.28
2018-12-31T14:14:28.223Z,8.30
2018-12-31T14:16:55.344Z,7.30
2018-12-31T14:19:22.479Z,9.73
2018-12-31T14:21:49.594Z,5.05
2018-12-31T14:24:17.095Z,6.08
2018-12-31T14:26:44.190Z,5.47
2018-12-31T14:29:14.186Z,9.63
2018-12-31T14:31:41.308Z,4.15
2018-12-31T14:34:08.433Z,5.33
2018-12-31T14:36:35.548Z,6.08
2018-12-31T14:39:05.688Z,4.30
2018-12-31T14:41:32.880Z,3.50
2018-12-31T14:43:59.930Z,4.97
2018-12-31T14:46:27.041Z,5.20
2018-12-31T14:48:54.164Z,4.90
2018-12-31T14:51:21.591Z,6.40
2018-12-31T14:53:48.718Z,8.98
2018-12-31T14:56:15.863Z,9.98
2018-12-31T14:58:43.257Z,7.40
2018-12-31T15:01:10.401Z,10.03
2018-12-31T15:03:38.338Z,8.38
2018-12-31T15:06:05.690Z,12.78
2018-12-31T15:08:33.035Z,15.80
2018-12-31T15:11:01.436Z,12.25
2018-12-31T15:13:28.595Z,9.23
2018-12-31T15:15:55.958Z,11.10
2018-12-31T15:18:23.221Z,12.43
2018-12-31T15:20:50.339Z,13.25
2018-12-31T15:23:17.410Z,8.68
2018-12-31T15:25:44.550Z,8.68
2018-12-31T15:28:11.666Z,17.00
2018-12-31T15:30:38.793Z,17.77
2018-12-31T15:33:06.160Z,12.63
2018-12-31T15:35:34.348Z,13.38
2018-12-31T15:38:01.688Z,12.98
2018-12-31T15:40:28.797Z,8.10
2018-12-31T15:42:55.920Z,11.30
2018-12-31T15:45:23.015Z,7.78
2018-12-31T15:47:50.411Z,8.70
2018-12-31T15:50:17.539Z,7.08
2018-12-31T15:52:44.710Z,6.50
2018-12-31T15:55:11.837Z,6.37
2018-12-31T15:57:38.942Z,7.25
2018-12-31T16:00:07.962Z,9.65
2018-12-31T16:02:35.201Z,9.65
2018-12-31T16:05:02.313Z,15.95
2018-12-31T16:07:29.442Z,14.83
2018-12-31T16:09:56.555Z,11.20
2018-12-31T16:12:23.672Z,7.55
2018-12-31T16:14:50.770Z,15.83
2018-12-31T16:17:17.878Z,13.20
2018-12-31T16:19:45.277Z,16.87
2018-12-31T16:22:12.350Z,20.25
2018-12-31T16:24:39.453Z,19.50
2018-12-31T16:27:06.548Z,13.70
2018-12-31T16:29:33.636Z,13.65
2018-12-31T16:32:00.999Z,12.25
2018-12-31T16:34:29.244Z,14.05
2018-12-31T16:36:56.476Z,14.93
2018-12-31T16:39:23.553Z,22.00
2018-12-31T16:41:50.613Z,59.85
2018-12-31T16:44:18.126Z,43.23
2018-12-31T16:46:45.216Z,30.35
2018-12-31T16:49:12.350Z,25.15
2018-12-31T16:51:39.434Z,22.95
2018-12-31T16:54:06.831Z,19.98
2018-12-31T16:56:33.931Z,14.50
2018-12-31T16:59:01.398Z,14.55
2018-12-31T17:01:28.477Z,21.57
2018-12-31T17:03:55.570Z,19.75
2018-12-31T17:06:22.630Z,22.98
2018-12-31T17:08:49.740Z,22.00
2018-12-31T17:11:16.827Z,22.82
2018-12-31T17:13:43.883Z,22.00
2018-12-31T17:16:10.937Z,15.83
2018-12-31T17:18:38.039Z,12.10
2018-12-31T17:21:05.131Z,11.93
2018-12-31T17:23:32.209Z,14.50
2018-12-31T17:25:59.265Z,25.40
2018-12-31T17:28:26.649Z,25.72
2018-12-31T17:30:53.760Z,15.63
2018-12-31T17:33:20.841Z,17.57
2018-12-31T17:35:47.902Z,15.98
2018-12-31T17:38:15.040Z,14.95
2018-12-31T17:40:42.103Z,14.90
2018-12-31T17:43:09.507Z,14.25
2018-12-31T17:45:36.567Z,16.02
2018-12-31T17:48:03.632Z,15.32
2018-12-31T17:50:30.716Z,15.83
2018-12-31T17:52:57.777Z,20.45
2018-12-31T17:55:24.837Z,19.90
2018-12-31T17:57:52.078Z,18.10
2018-12-31T18:00:19.142Z,19.17
2018-12-31T18:02:46.195Z,14.53
2018-12-31T18:05:13.255Z,15.65
2018-12-31T18:07:40.309Z,16.62
2018-12-31T18:10:08.268Z,16.65
2018-12-31T18:12:35.609Z,12.95
2018-12-31T18:15:02.640Z,16.93
2018-12-31T18:17:29.714Z,13.40
2018-12-31T18:19:56.762Z,14.40
2018-12-31T18:22:23.822Z,16.67
2018-12-31T18:24:50.872Z,13.72
2018-12-31T18:27:18.122Z,13.62
2018-12-31T18:29:45.169Z,16.50
2018-12-31T18:32:12.220Z,14.55
2018-12-31T18:34:39.256Z,17.87
2018-12-31T18:37:06.310Z,14.15
2018-12-31T18:39:33.743Z,13.15
2018-12-31T18:42:00.812Z,16.17
2018-12-31T18:44:27.880Z,14.00
2018-12-31T18:46:54.901Z,13.48
2018-12-31T18:49:21.971Z,11.65
2018-12-31T18:51:49.138Z,13.60
2018-12-31T18:54:16.155Z,18.20
2018-12-31T18:56:43.296Z,15.53
2018-12-31T18:59:10.343Z,17.73
2018-12-31T19:01:37.375Z,14.40
2018-12-31T19:04:04.430Z,13.60
2018-12-31T19:06:31.483Z,10.98
2018-12-31T19:08:58.554Z,12.65
2018-12-31T19:11:25.608Z,13.10
2018-12-31T19:13:52.634Z,9.80
2018-12-31T19:16:19.662Z,12.78
2018-12-31T19:18:46.740Z,11.93
2018-12-31T19:21:13.775Z,11.38
2018-12-31T19:23:40.846Z,11.83
2018-12-31T19:26:08.093Z,9.83
2018-12-31T19:28:35.138Z,11.15
2018-12-31T19:31:02.409Z,14.10
2018-12-31T19:33:29.450Z,9.78
2018-12-31T19:35:56.507Z,16.10
2018-12-31T19:38:23.539Z,11.57
2018-12-31T19:40:50.792Z,10.40
2018-12-31T19:43:17.847Z,10.88
2018-12-31T19:45:44.907Z,11.43
2018-12-31T19:48:11.950Z,12.03
2018-12-31T19:50:39.001Z,12.55
2018-12-31T19:53:06.078Z,14.70
2018-12-31T19:55:41.633Z,12.50
2018-12-31T19:58:08.781Z,11.30
2018-12-31T20:00:35.833Z,11.70
2018-12-31T20:03:02.887Z,15.48
2018-12-31T20:05:29.928Z,14.95
2018-12-31T20:07:57.613Z,12.45
2018-12-31T20:10:24.627Z,11.90
2018-12-31T20:12:51.662Z,16.97
2018-12-31T20:15:18.714Z,13.55
2018-12-31T20:17:45.753Z,12.35
2018-12-31T20:20:12.803Z,13.80
2018-12-31T20:22:40.158Z,12.80
2018-12-31T20:25:07.185Z,13.98
2018-12-31T20:27:34.291Z,15.13
2018-12-31T20:30:01.359Z,16.50
2018-12-31T20:32:28.393Z,13.50
2018-12-31T20:34:55.436Z,12.70
2018-12-31T20:37:22.464Z,13.38
2018-12-31T20:39:49.710Z,14.93
2018-12-31T20:42:16.752Z,15.28
2018-12-31T20:44:43.777Z,13.78
2018-12-31T20:47:10.814Z,33.58
2018-12-31T20:49:37.882Z,15.35
2018-12-31T20:52:04.939Z,15.75
2018-12-31T20:54:32.000Z,15.63
2018-12-31T20:56:59.096Z,14.20
2018-12-31T20:59:26.114Z,17.60
2018-12-31T21:01:53.792Z,13.75
2018-12-31T21:04:20.887Z,13.62
2018-12-31T21:06:47.918Z,14.63
2018-12-31T21:09:14.944Z,14.75
2018-12-31T21:11:41.990Z,14.45
2018-12-31T21:14:09.025Z,15.28
2018-12-31T21:16:36.064Z,15.35
2018-12-31T21:19:03.096Z,16.65
2018-12-31T21:21:30.137Z,15.53
2018-12-31T21:23:57.188Z,14.35
2018-12-31T21:26:24.239Z,17.52
2018-12-31T21:28:51.275Z,21.00
2018-12-31T21:31:18.307Z,17.15
2018-12-31T21:33:45.330Z,23.83
2018-12-31T21:36:12.369Z,20.25
2018-12-31T21:38:39.421Z,20.75
2018-12-31T21:41:06.656Z,19.60
2018-12-31T21:43:33.696Z,25.75
2018-12-31T21:46:00.730Z,23.47
2018-12-31T21:48:27.778Z,25.48
2018-12-31T21:50:54.847Z,25.08
2018-12-31T21:53:21.895Z,27.82
2018-12-31T21:55:49.238Z,25.23
2018-12-31T21:58:16.265Z,28.30
2018-12-31T22:00:43.294Z,30.10
2018-12-31T22:03:10.353Z,27.60
2018-12-31T22:05:37.383Z,31.23
2018-12-31T22:08:04.411Z,27.48
2018-12-31T22:10:31.746Z,30.12
2018-12-31T22:12:58.780Z,44.50
2018-12-31T22:15:25.810Z,42.70
2018-12-31T22:17:52.882Z,30.12
2018-12-31T22:20:19.911Z,35.95
2018-12-31T22:22:46.978Z,37.30
2018-12-31T22:25:14.010Z,39.00
2018-12-31T22:27:41.050Z,38.05
2018-12-31T22:30:08.851Z,33.00
2018-12-31T22:32:35.915Z,37.65
2018-12-31T22:35:02.944Z,41.73
2018-12-31T22:37:29.973Z,36.17
2018-12-31T22:39:57.006Z,37.78
2018-12-31T22:42:24.034Z,44.88
2018-12-31T22:44:51.100Z,52.35
2018-12-31T22:47:18.128Z,38.80
2018-12-31T22:49:45.193Z,41.58
2018-12-31T22:52:12.246Z,47.45
2018-12-31T22:54:39.590Z,58.35
2018-12-31T22:57:06.612Z,59.00
2018-12-31T22:59:33.639Z,65.32
2018-12-31T23:02:00.665Z,75.85
2018-12-31T23:04:27.699Z,253.80
2018-12-31T23:06:58.352Z,299.70
2018-12-31T23:09:25.578Z,338.18
2018-12-31T23:11:52.679Z,470.42
2018-12-31T23:14:19.730Z,417.22
2018-12-31T23:16:50.485Z,299.02
2018-12-31T23:19:17.534Z,309.07
2018-12-31T23:21:44.575Z,293.97
2018-12-31T23:24:11.603Z,231.05
2018-12-31T23:26:38.634Z,136.55
2018-12-31T23:29:05.675Z,99.75
2018-12-31T23:31:32.723Z,89.67
2018-12-31T23:34:00.249Z,76.70
2018-12-31T23:36:27.304Z,77.60
2018-12-31T23:38:54.353Z,81.55
2018-12-31T23:41:21.396Z,79.82
2018-12-31T23:43:48.452Z,75.52
2018-12-31T23:46:15.485Z,84.50
2018-12-31T23:48:42.507Z,79.80
2018-12-31T23:51:09.550Z,72.20
2018-12-31T23:53:36.591Z,62.30
2018-12-31T23:56:03.732Z,63.23
2018-12-31T23:58:30.763Z,65.60
